Time;durP1;ratioP1;P1;durP2;ratioP2;P2;SDS_P1;SDS_P2;PMS_P1;PMS_P2;Temp;Humidity;BMP_temperature;BMP_pressure;BME280_temperature;BME280_humidity;BME280_pressure;Samples;Min_cycle;Max_cycle;Signal;HPM_P1;HPM_P2
2022/05/06 00:00:34;;;;;;;7.63;7.03;;;;;;;11.30;100.00;97092.81;5069736;28;20234;-51
2022/05/06 00:03:00;;;;;;;8.23;7.50;;;;;;;11.28;100.00;97094.75;5070265;28;20195;-51
2022/05/06 00:05:27;;;;;;;8.00;7.30;;;;;;;11.35;100.00;97088.78;5069161;28;20234;-52
2022/05/06 00:07:55;;;;;;;7.80;7.20;;;;;;;11.30;100.00;97088.34;5065085;28;20202;-52
2022/05/06 00:10:23;;;;;;;7.70;7.00;;;;;;;11.31;100.00;97083.88;5065617;28;20207;-51
2022/05/06 00:12:49;;;;;;;7.80;7.20;;;;;;;11.33;100.00;97080.16;5062736;28;20183;-52
2022/05/06 00:15:16;;;;;;;7.07;6.57;;;;;;;11.34;100.00;97073.00;5062529;28;20219;-52
2022/05/06 00:17:42;;;;;;;7.40;6.80;;;;;;;11.34;100.00;97078.31;5061181;28;20242;-53
2022/05/06 00:20:10;;;;;;;8.00;7.40;;;;;;;11.33;100.00;97072.19;5058064;28;20255;-50
2022/05/06 00:22:37;;;;;;;7.40;6.80;;;;;;;11.33;100.00;97081.94;5069573;28;20179;-51
2022/05/06 00:25:06;;;;;;;7.47;6.87;;;;;;;11.30;100.00;97071.63;5068547;28;20225;-52
2022/05/06 00:27:32;;;;;;;7.50;6.87;;;;;;;11.31;100.00;97074.13;5044977;28;20211;-53
2022/05/06 00:30:00;;;;;;;7.73;7.13;;;;;;;11.30;100.00;97072.44;5042025;28;20210;-51
2022/05/06 00:32:26;;;;;;;7.20;6.70;;;;;;;11.30;100.00;97066.34;5042317;28;20211;-51
2022/05/06 00:34:55;;;;;;;7.70;7.10;;;;;;;11.32;100.00;97064.38;5042431;28;20210;-52
2022/05/06 00:37:21;;;;;;;7.40;6.80;;;;;;;11.30;100.00;97075.09;5043335;28;20261;-52
2022/05/06 00:39:48;;;;;;;7.17;6.57;;;;;;;11.27;100.00;97071.88;5042396;28;20349;-51
2022/05/06 00:42:18;;;;;;;9.23;7.30;;;;;;;11.28;100.00;97069.13;5041990;28;20647;-53
2022/05/06 00:44:44;;;;;;;7.17;6.57;;;;;;;11.28;100.00;97060.31;5042286;28;20211;-53
2022/05/06 00:47:11;;;;;;;7.50;6.90;;;;;;;11.27;100.00;97062.13;5042810;28;20203;-52
2022/05/06 00:49:38;;;;;;;7.53;6.93;;;;;;;11.29;100.00;97064.66;5042136;28;20656;-52
2022/05/06 00:52:06;;;;;;;7.60;7.07;;;;;;;11.29;100.00;97062.00;5059002;28;20191;-52
2022/05/06 00:54:33;;;;;;;6.53;6.13;;;;;;;11.29;100.00;97069.94;5061187;28;20211;-53
2022/05/06 00:57:00;;;;;;;7.37;6.77;;;;;;;11.28;100.00;97061.16;5050588;28;20223;-51
2022/05/06 00:59:28;;;;;;;7.23;6.63;;;;;;;11.32;100.00;97059.09;5042307;28;20216;-53
2022/05/06 01:01:55;;;;;;;7.00;6.50;;;;;;;11.31;100.00;97054.75;5041973;28;20199;-53
2022/05/06 01:04:22;;;;;;;6.03;5.63;;;;;;;11.31;100.00;97054.75;5041350;28;20265;-52
2022/05/06 01:06:48;;;;;;;6.47;5.97;;;;;;;11.32;100.00;97057.28;5042161;28;20202;-53
2022/05/06 01:09:16;;;;;;;6.93;6.43;;;;;;;11.29;100.00;97046.97;5041160;28;20195;-52
2022/05/06 01:11:43;;;;;;;7.10;6.50;;;;;;;11.32;100.00;97059.94;5041030;28;20262;-51
2022/05/06 01:14:10;;;;;;;6.80;6.20;;;;;;;11.36;100.00;97060.47;5042597;28;20234;-53
2022/05/06 01:16:38;;;;;;;6.83;6.33;;;;;;;11.36;100.00;97058.69;5041725;28;20234;-50
2022/05/06 01:19:05;;;;;;;7.23;6.63;;;;;;;11.35;100.00;97045.56;5041844;28;20196;-51
2022/05/06 01:21:35;;;;;;;6.97;6.47;;;;;;;11.33;100.00;97044.88;5042612;28;20290;-51
2022/05/06 01:24:04;;;;;;;7.13;6.63;;;;;;;11.34;100.00;97035.94;5040457;28;20207;-52
2022/05/06 01:26:53;;;;;;;6.90;6.40;;;;;;;11.34;100.00;97044.72;5042056;28;20206;-52
2022/05/06 01:29:21;;;;;;;7.37;6.80;;;;;;;11.34;100.00;97046.53;5041991;28;20207;-52
2022/05/06 01:31:48;;;;;;;7.57;6.87;;;;;;;11.33;100.00;97039.59;5041056;28;20787;-52
2022/05/06 01:34:21;;;;;;;7.00;6.50;;;;;;;11.35;100.00;97041.09;5040478;28;20222;-51
2022/05/06 01:36:50;;;;;;;6.63;6.13;;;;;;;11.31;100.00;97047.66;5042106;28;20242;-54
2022/05/06 01:39:20;;;;;;;7.50;6.90;;;;;;;11.29;100.00;97046.13;5051842;28;20204;-53
2022/05/06 01:41:51;;;;;;;7.93;7.33;;;;;;;11.27;100.00;97035.66;5050696;28;20202;-52
2022/05/06 01:44:19;;;;;;;7.83;7.13;;;;;;;11.28;100.00;97041.78;5044244;28;20229;-52
2022/05/06 01:46:46;;;;;;;7.30;6.77;;;;;;;11.29;100.00;97043.47;5041735;28;20207;-52
2022/05/06 01:49:17;;;;;;;7.13;6.63;;;;;;;11.29;100.00;97043.47;5040850;28;20204;-51
2022/05/06 01:51:44;;;;;;;7.40;6.80;;;;;;;11.30;100.00;97045.16;5029870;28;20199;-51
2022/05/06 01:54:10;;;;;;;6.93;6.33;;;;;;;11.35;100.00;97040.28;5029704;28;20222;-52
2022/05/06 01:56:39;;;;;;;6.70;6.20;;;;;;;11.36;100.00;97048.09;5040860;28;20219;-52
2022/05/06 01:59:05;;;;;;;6.50;6.00;;;;;;;11.29;100.00;97046.97;5040810;28;20537;-51
2022/05/06 02:01:34;;;;;;;6.80;6.30;;;;;;;11.36;100.00;97040.16;5040931;28;20262;-51
2022/05/06 02:06:45;;;;;;;6.43;5.93;;;;;;;11.35;100.00;97050.88;5040607;28;20210;-52
2022/05/06 02:09:11;;;;;;;6.47;5.97;;;;;;;11.36;100.00;97039.31;5041790;28;20222;-52
2022/05/06 02:11:40;;;;;;;6.93;6.33;;;;;;;11.37;100.00;97035.69;5040959;28;20207;-51
2022/05/06 02:14:07;;;;;;;6.13;5.70;;;;;;;11.33;100.00;97040.44;5040562;28;20207;-52
2022/05/06 02:16:34;;;;;;;5.57;5.17;;;;;;;11.32;100.00;97043.19;5040719;28;20238;-53
2022/05/06 02:19:01;;;;;;;5.33;4.93;;;;;;;11.35;100.00;97041.09;5041082;28;20199;-51
2022/05/06 02:21:31;;;;;;;5.33;4.93;;;;;;;11.30;100.00;97039.88;5040794;28;20592;-52
2022/05/06 02:23:57;;;;;;;6.00;5.40;;;;;;;11.33;100.00;97042.22;5040856;28;20637;-52
2022/05/06 02:26:24;;;;;;;5.10;4.80;;;;;;;11.33;100.00;97034.28;5040403;28;20218;-51
2022/05/06 02:28:52;;;;;;;5.67;5.17;;;;;;;11.34;100.00;97041.22;5041102;28;20221;-51
2022/05/06 02:34:04;;;;;;;5.27;4.87;;;;;;;11.37;100.00;97040.97;5059518;28;20205;-52
2022/05/06 02:36:31;;;;;;;5.83;5.40;;;;;;;11.37;100.00;97041.78;5063281;28;20230;-51
2022/05/06 02:38:58;;;;;;;5.23;4.73;;;;;;;11.35;100.00;97042.91;5062845;28;20207;-52
2022/05/06 02:41:28;;;;;;;5.27;4.87;;;;;;;11.39;100.00;97028.44;5040671;28;20488;-52
2022/05/06 02:43:58;;;;;;;5.80;5.40;;;;;;;11.41;100.00;97031.75;5040852;28;20217;-52
2022/05/06 02:46:25;;;;;;;6.30;5.83;;;;;;;11.41;100.00;97037.06;5044797;28;20241;-51
2022/05/06 02:48:51;;;;;;;6.63;6.13;;;;;;;11.40;100.00;97030.09;5044914;28;20242;-52
2022/05/06 02:51:18;;;;;;;6.60;6.10;;;;;;;11.39;100.00;97031.06;5044905;28;20207;-52
2022/05/06 02:53:44;;;;;;;8.03;7.43;;;;;;;11.40;100.00;97027.47;5044117;28;20646;-50
2022/05/06 02:56:12;;;;;;;9.03;8.30;;;;;;;11.39;100.00;97031.91;5044668;28;20219;-52
2022/05/06 02:58:41;;;;;;;10.53;9.07;;;;;;;11.41;100.00;97031.75;5044706;28;20195;-51
2022/05/06 03:01:09;;;;;;;10.13;9.33;;;;;;;11.43;100.00;97024.53;5043042;28;20222;-52
2022/05/06 03:03:36;;;;;;;13.23;12.03;;;;;;;11.47;100.00;97031.22;5043818;28;20203;-51
2022/05/06 03:06:02;;;;;;;14.50;13.10;;;;;;;11.46;100.00;97026.91;5043587;28;20314;-52
2022/05/06 03:08:29;;;;;;;15.27;13.83;;;;;;;11.48;100.00;97027.59;5044060;28;20226;-52
2022/05/06 03:10:56;;;;;;;15.07;13.57;;;;;;;11.44;100.00;97027.03;5042522;28;20211;-52
2022/05/06 03:13:24;;;;;;;15.57;14.07;;;;;;;11.46;100.00;97034.84;5043904;28;20212;-52
2022/05/06 03:15:50;;;;;;;16.30;14.80;;;;;;;11.45;100.00;97031.34;5043931;28;20215;-52
2022/05/06 03:18:18;;;;;;;16.90;15.30;;;;;;;11.46;100.00;97029.53;5044284;28;20200;-51
2022/05/06 03:20:47;;;;;;;17.10;15.50;;;;;;;11.45;100.00;97034.00;5043509;28;20199;-54
2022/05/06 03:23:16;;;;;;;18.07;16.37;;;;;;;11.42;100.00;97028.16;5044571;28;20207;-53
2022/05/06 03:25:44;;;;;;;18.10;16.37;;;;;;;11.42;100.00;97029.00;5043194;28;20207;-51
2022/05/06 03:28:12;;;;;;;17.53;15.93;;;;;;;11.42;100.00;97029.00;5033809;28;20199;-51
2022/05/06 03:30:45;;;;;;;17.17;15.67;;;;;;;11.42;100.00;97022.84;5043686;28;20258;-52
2022/05/06 03:33:14;;;;;;;18.33;16.63;;;;;;;11.42;100.00;97020.22;5044197;28;20214;-52
2022/05/06 03:35:42;;;;;;;19.63;17.83;;;;;;;11.39;100.00;97018.69;5044791;28;20273;-52
2022/05/06 03:38:09;;;;;;;19.20;17.40;;;;;;;11.39;100.00;97020.50;5043207;28;20218;-52
2022/05/06 03:40:36;;;;;;;17.37;15.67;;;;;;;11.40;100.00;97014.22;5043112;28;20208;-51
2022/05/06 03:43:03;;;;;;;18.90;17.20;;;;;;;11.37;100.00;97017.97;5042458;28;20211;-52
2022/05/06 03:45:30;;;;;;;18.77;16.97;;;;;;;11.41;100.00;97023.81;5043471;28;20227;-51
2022/05/06 03:47:58;;;;;;;20.60;18.50;;;;;;;11.36;100.00;97021.59;5043078;28;20539;-51
2022/05/06 03:53:11;;;;;;;20.67;18.67;;;;;;;11.35;100.00;97022.56;5042857;28;20253;-51
2022/05/06 03:55:37;;;;;;;20.30;18.40;;;;;;;11.34;100.00;97025.34;5043219;28;20211;-52
2022/05/06 03:58:03;;;;;;;20.17;18.17;;;;;;;11.29;100.00;97019.66;5043030;28;20228;-51
2022/05/06 04:00:30;;;;;;;21.43;19.37;;;;;;;11.29;100.00;97017.00;5043329;28;20215;-52
2022/05/06 04:02:58;;;;;;;19.33;17.43;;;;;;;11.30;100.00;97023.97;5042894;28;20538;-51
2022/05/06 04:05:25;;;;;;;19.13;17.23;;;;;;;11.30;100.00;97023.97;5042403;28;20235;-52
2022/05/06 04:07:54;;;;;;;19.23;17.40;;;;;;;11.32;100.00;97028.16;5042801;28;20192;-52
2022/05/06 04:10:22;;;;;;;18.57;16.87;;;;;;;11.32;100.00;97027.31;5032873;28;20195;-51
2022/05/06 04:12:51;;;;;;;19.57;17.67;;;;;;;11.32;100.00;97030.81;5041376;28;20203;-51
2022/05/06 04:15:18;;;;;;;18.73;17.00;;;;;;;11.35;100.00;97030.53;5041751;28;20215;-51
2022/05/06 04:17:44;;;;;;;18.70;16.87;;;;;;;11.31;100.00;97021.16;5042344;28;20687;-52
2022/05/06 04:25:42;;;;;;;19.97;16.73;;;;;;;11.30;100.00;97030.09;5042604;28;20272;-52
2022/05/06 04:28:09;;;;;;;18.40;16.53;;;;;;;11.32;100.00;97035.25;5042024;28;20227;-51
2022/05/06 04:30:36;;;;;;;18.13;16.40;;;;;;;11.35;100.00;97033.16;5042514;28;20592;-51
2022/05/06 04:33:04;;;;;;;18.50;16.70;;;;;;;11.33;100.00;97039.59;5042635;28;20230;-52
2022/05/06 04:35:31;;;;;;;17.10;15.50;;;;;;;11.35;100.00;97042.91;5042543;28;20294;-53
2022/05/06 04:37:58;;;;;;;17.10;15.50;;;;;;;11.33;100.00;97031.63;5043202;28;20219;-51
2022/05/06 04:40:28;;;;;;;17.23;15.53;;;;;;;11.36;100.00;97039.31;5042280;28;20207;-51
2022/05/06 04:42:57;;;;;;;17.27;15.60;;;;;;;11.36;100.00;97039.31;5042715;28;20337;-51
2022/05/06 04:45:24;;;;;;;16.40;14.90;;;;;;;11.32;100.00;97045.84;5041898;28;20669;-52
2022/05/06 04:47:51;;;;;;;16.60;15.10;;;;;;;11.31;100.00;97046.81;5049797;28;20214;-51
2022/05/06 04:50:18;;;;;;;15.43;13.83;;;;;;;11.31;100.00;97050.28;5060845;28;20203;-52
2022/05/06 04:52:44;;;;;;;15.13;13.83;;;;;;;11.31;100.00;97049.47;5060729;28;20217;-52
2022/05/06 04:55:11;;;;;;;15.30;13.80;;;;;;;11.31;100.00;97047.66;5043969;28;20199;-52
2022/05/06 04:57:38;;;;;;;15.23;13.83;;;;;;;11.36;100.00;97044.59;5042642;28;20227;-50
2022/05/06 05:00:09;;;;;;;16.37;14.87;;;;;;;11.39;100.00;97044.31;5041597;28;20699;-51
2022/05/06 05:02:37;;;;;;;16.17;14.67;;;;;;;11.33;100.00;97052.81;5031503;28;20207;-52
2022/05/06 05:05:04;;;;;;;16.70;15.13;;;;;;;11.34;100.00;97046.53;5041321;28;20235;-50
2022/05/06 05:07:33;;;;;;;16.70;15.20;;;;;;;11.34;100.00;97057.13;5041959;28;20283;-52
2022/05/06 05:09:59;;;;;;;16.47;14.87;;;;;;;11.37;100.00;97055.03;5041559;28;20202;-51
2022/05/06 05:12:26;;;;;;;16.97;15.40;;;;;;;11.39;100.00;97046.97;5041630;28;20248;-52
2022/05/06 05:14:52;;;;;;;17.43;15.77;;;;;;;11.39;100.00;97044.31;5041193;28;20195;-52
2022/05/06 05:17:20;;;;;;;17.17;15.57;;;;;;;11.42;100.00;97047.53;5041041;28;20232;-52
2022/05/06 05:19:47;;;;;;;17.33;15.70;;;;;;;11.45;100.00;97051.69;5041475;28;20219;-51
2022/05/06 05:22:13;;;;;;;19.93;18.03;;;;;;;11.42;100.00;97049.34;5041252;28;20303;-52
2022/05/06 05:24:42;;;;;;;20.20;18.30;;;;;;;11.42;100.00;97049.34;5040777;28;20203;-51
2022/05/06 05:27:09;;;;;;;21.07;18.97;;;;;;;11.40;100.00;97044.19;5040922;28;20195;-50
2022/05/06 05:29:35;;;;;;;19.17;17.30;;;;;;;11.45;100.00;97047.25;5042550;28;20262;-50
2022/05/06 05:32:04;;;;;;;20.03;18.03;;;;;;;11.45;100.00;97055.19;5040783;28;20210;-51
2022/05/06 05:34:32;;;;;;;20.57;17.57;;;;;;;11.44;100.00;97048.22;5040785;28;20207;-51
2022/05/06 05:36:59;;;;;;;19.83;18.03;;;;;;;11.41;100.00;97052.94;5041564;28;20232;-52
2022/05/06 05:39:26;;;;;;;20.37;18.27;;;;;;;11.46;100.00;97048.94;5041454;28;20203;-52
2022/05/06 05:41:52;;;;;;;19.87;17.80;;;;;;;11.43;100.00;97049.22;5042140;28;20536;-52
2022/05/06 05:49:50;;;;;;;21.13;19.07;;;;;;;11.44;100.00;97050.06;5041020;28;20202;-50
2022/05/06 05:52:16;;;;;;;22.43;20.13;;;;;;;11.43;100.00;97043.06;5040735;28;20218;-53
2022/05/06 05:54:43;;;;;;;22.43;20.17;;;;;;;11.45;100.00;97046.41;5041090;28;20237;-52
2022/05/06 05:57:09;;;;;;;20.77;18.57;;;;;;;11.44;100.00;97048.22;5040563;28;20244;-52
2022/05/06 05:59:37;;;;;;;21.73;19.43;;;;;;;11.45;100.00;97054.34;5041485;28;20191;-51
2022/05/06 06:02:04;;;;;;;21.40;19.20;;;;;;;11.46;100.00;97050.75;5041274;28;20204;-50
2022/05/06 06:04:32;;;;;;;21.93;19.70;;;;;;;11.45;100.00;97049.91;5041612;28;20333;-51
2022/05/06 06:07:00;;;;;;;22.03;19.73;;;;;;;11.46;100.00;97056.03;5031508;28;20346;-52
2022/05/06 06:09:27;;;;;;;22.43;20.23;;;;;;;11.44;100.00;97061.44;5042320;28;20219;-51
2022/05/06 06:11:54;;;;;;;22.77;20.47;;;;;;;11.37;100.00;97062.16;5041170;28;20315;-51
2022/05/06 06:14:21;;;;;;;22.17;19.93;;;;;;;11.39;100.00;97058.41;5042097;28;20211;-51
2022/05/06 06:16:48;;;;;;;23.13;19.43;;;;;;;11.44;100.00;97058.81;5042126;28;20230;-51
2022/05/06 06:19:15;;;;;;;21.20;19.07;;;;;;;11.48;100.00;97069.97;5042868;28;20196;-52
2022/05/06 06:21:45;;;;;;;22.67;19.67;;;;;;;11.49;100.00;97061.88;5055112;28;20234;-52
2022/05/06 06:24:13;;;;;;;21.30;19.20;;;;;;;11.52;100.00;97063.41;5055897;28;20269;-52
2022/05/06 06:26:40;;;;;;;22.10;19.80;;;;;;;11.54;100.00;97064.13;5047380;28;20620;-52
2022/05/06 06:29:07;;;;;;;21.60;19.27;;;;;;;11.56;100.00;97061.31;5044672;28;20565;-52
2022/05/06 06:31:34;;;;;;;21.57;19.37;;;;;;;11.57;100.00;97063.84;5044027;28;20657;-50
2022/05/06 06:34:00;;;;;;;22.13;19.87;;;;;;;11.55;100.00;97064.97;5034806;28;20211;-51
2022/05/06 06:36:28;;;;;;;22.17;19.87;;;;;;;11.56;100.00;97064.81;5044371;28;20619;-50
2022/05/06 06:38:55;;;;;;;21.17;19.10;;;;;;;11.61;100.00;97054.66;5043932;28;20697;-52
2022/05/06 06:41:25;;;;;;;21.83;19.63;;;;;;;11.69;100.00;97056.59;5045446;28;20208;-52
2022/05/06 06:43:53;;;;;;;21.93;19.63;;;;;;;11.75;100.00;97051.63;5034237;28;20274;-52
2022/05/06 06:46:20;;;;;;;20.40;18.40;;;;;;;11.81;100.00;97053.69;5044656;28;20211;-51
2022/05/06 06:48:48;;;;;;;23.20;20.70;;;;;;;11.87;100.00;97061.06;5045418;28;20212;-52
2022/05/06 06:51:15;;;;;;;22.80;20.60;;;;;;;11.89;100.00;97061.78;5044385;28;20648;-51
2022/05/06 06:53:41;;;;;;;23.37;21.00;;;;;;;11.86;100.00;97061.22;5043755;28;20219;-50
2022/05/06 06:56:10;;;;;;;21.83;19.63;;;;;;;11.89;100.00;97055.66;5045225;28;20208;-51
2022/05/06 06:58:38;;;;;;;21.60;19.50;;;;;;;11.89;100.00;97064.44;5044978;28;20238;-51
2022/05/06 07:01:05;;;;;;;23.63;21.20;;;;;;;11.91;100.00;97062.47;5054934;28;20214;-53
2022/05/06 07:03:32;;;;;;;22.87;20.47;;;;;;;11.92;100.00;97066.81;5052751;28;20298;-51
2022/05/06 07:11:56;;;;;;;21.50;19.00;;;;;;;11.90;100.00;97065.28;5038979;28;20206;-51
2022/05/06 07:14:26;;;;;;;22.33;20.00;;;;;;;11.91;100.00;97072.22;5045706;28;20204;-51
2022/05/06 07:16:54;;;;;;;25.00;22.50;;;;;;;11.91;100.00;97067.78;5044351;28;20242;-51
2022/05/06 07:19:21;;;;;;;23.90;21.53;;;;;;;11.90;100.00;97067.94;5044103;28;20200;-51
2022/05/06 07:21:49;;;;;;;28.83;25.80;;;;;;;11.91;100.00;97078.38;5044530;28;20231;-51
2022/05/06 07:24:16;;;;;;;22.53;20.43;;;;;;;11.92;100.00;97076.56;5045147;28;20232;-51
2022/05/06 07:26:45;;;;;;;24.37;21.80;;;;;;;11.93;100.00;97080.91;5044722;28;20560;-51
2022/05/06 07:29:13;;;;;;;22.37;20.17;;;;;;;11.97;100.00;97083.09;5045137;28;20203;-51
2022/05/06 07:31:43;;;;;;;23.60;21.20;;;;;;;11.94;100.00;97083.38;5042549;28;20229;-51
2022/05/06 07:34:10;;;;;;;24.37;21.87;;;;;;;11.93;100.00;97091.50;5044420;28;20691;-51
2022/05/06 07:36:41;;;;;;;21.27;19.27;;;;;;;11.92;100.00;97089.81;5044585;28;20226;-50
2022/05/06 07:39:11;;;;;;;19.70;17.83;;;;;;;11.89;100.00;97090.94;5044759;28;20554;-50
2022/05/06 07:41:38;;;;;;;20.23;18.23;;;;;;;11.83;100.00;97083.53;5046109;28;20204;-51
2022/05/06 07:44:05;;;;;;;20.50;18.40;;;;;;;11.86;100.00;97085.94;5047558;28;20211;-50
2022/05/06 07:46:32;;;;;;;19.00;17.10;;;;;;;11.83;100.00;97088.81;5047464;28;20239;-50
2022/05/06 07:49:01;;;;;;;18.77;16.93;;;;;;;11.95;100.00;97078.94;5062639;28;20219;-49
2022/05/06 07:51:28;;;;;;;18.10;16.47;;;;;;;11.95;100.00;97084.22;5064487;28;20199;-50
2022/05/06 07:53:56;;;;;;;20.33;18.47;;;;;;;11.95;100.00;97090.38;5065697;28;20211;-50
2022/05/06 07:56:23;;;;;;;19.27;17.40;;;;;;;12.05;100.00;97084.22;5069264;28;20310;-50
2022/05/06 07:58:49;;;;;;;18.13;16.27;;;;;;;12.16;100.00;97087.53;5064581;28;20214;-49
2022/05/06 08:01:18;;;;;;;21.17;18.97;;;;;;;12.17;100.00;97088.38;5069599;28;20180;-50
2022/05/06 08:06:32;;;;;;;20.43;18.43;;;;;;;12.16;100.00;97084.06;5055790;28;20222;-53
2022/05/06 08:08:59;;;;;;;19.20;17.30;;;;;;;12.21;100.00;97089.78;5044791;28;20249;-50
2022/05/06 08:11:26;;;;;;;20.67;18.00;;;;;;;12.17;100.00;97086.59;5065261;28;20210;-50
2022/05/06 08:13:52;;;;;;;23.20;17.83;;;;;;;12.18;100.00;97085.59;5059947;28;20218;-51
2022/05/06 08:16:19;;;;;;;18.80;16.90;;;;;;;12.25;100.00;97088.53;5042481;28;20199;-51
2022/05/06 08:18:45;;;;;;;20.53;18.47;;;;;;;12.21;100.00;97095.09;5043442;28;20223;-50
2022/05/06 08:21:12;;;;;;;19.93;17.83;;;;;;;12.19;100.00;97091.72;5042999;28;20214;-50
2022/05/06 08:23:40;;;;;;;20.67;18.13;;;;;;;12.13;100.00;97087.00;5042116;28;20203;-49
2022/05/06 08:26:08;;;;;;;19.67;17.67;;;;;;;12.13;100.00;97092.28;5042230;28;20532;-50
2022/05/06 08:28:35;;;;;;;20.40;18.40;;;;;;;12.11;100.00;97094.28;5042721;28;20257;-51
2022/05/06 08:31:01;;;;;;;20.73;18.57;;;;;;;12.07;100.00;97099.03;5042729;28;20521;-50
2022/05/06 08:33:30;;;;;;;19.57;17.70;;;;;;;12.13;100.00;97103.75;5042577;28;20219;-51
2022/05/06 08:35:56;;;;;;;18.80;16.97;;;;;;;12.20;100.00;97099.56;5041908;28;20236;-52
2022/05/06 08:38:25;;;;;;;19.70;17.73;;;;;;;12.17;100.00;97101.66;5041651;28;20238;-50
2022/05/06 08:40:52;;;;;;;20.20;18.10;;;;;;;12.18;100.00;97101.53;5041895;28;20728;-51
2022/05/06 08:43:19;;;;;;;18.93;17.20;;;;;;;12.18;100.00;97104.16;5041804;28;20206;-52
2022/05/06 08:51:15;;;;;;;21.87;19.57;;;;;;;12.10;100.00;97111.16;5041203;28;20734;-52
2022/05/06 08:53:43;;;;;;;19.50;17.60;;;;;;;12.14;100.00;97110.72;5031762;28;20204;-53
2022/05/06 08:56:10;;;;;;;19.87;17.77;;;;;;;12.19;100.00;97111.13;5041429;28;20202;-51
2022/05/06 08:58:37;;;;;;;21.80;19.50;;;;;;;12.15;100.00;97122.19;5040918;28;20231;-52
2022/05/06 09:01:05;;;;;;;22.33;19.93;;;;;;;12.15;100.00;97122.19;5042996;28;20243;-52
2022/05/06 09:03:32;;;;;;;23.27;20.97;;;;;;;12.14;100.00;97120.50;5039281;28;20694;-51
2022/05/06 09:05:59;;;;;;;23.80;19.53;;;;;;;12.11;100.00;97115.47;5040771;28;20250;-51
2022/05/06 09:08:35;;;;;;;24.10;21.50;;;;;;;12.11;100.00;97112.81;5041995;28;20287;-51
2022/05/06 09:11:05;;;;;;;24.10;21.17;;;;;;;12.09;100.00;97122.72;5041690;28;20199;-51
2022/05/06 09:13:34;;;;;;;22.60;20.30;;;;;;;12.05;100.00;97122.16;5041797;28;20215;-51
2022/05/06 09:19:16;;;;;;;22.10;19.73;;;;;;;12.04;100.00;97128.47;5063978;28;20302;-51
2022/05/06 09:22:13;;;;;;;23.10;20.87;;;;;;;12.01;100.00;97136.66;5059223;28;20620;-50
2022/05/06 09:24:40;;;;;;;22.73;20.10;;;;;;;12.06;100.00;97133.59;5042720;28;21376;-51
2022/05/06 09:27:08;;;;;;;22.10;19.87;;;;;;;12.07;100.00;97137.94;5041679;28;20214;-50
2022/05/06 09:29:38;;;;;;;23.23;20.90;;;;;;;12.07;100.00;97135.28;5042017;28;20222;-51
2022/05/06 09:32:21;;;;;;;25.43;21.70;;;;;;;12.09;100.00;97138.63;5041850;28;20481;-50
2022/05/06 09:34:49;;;;;;;25.27;22.67;;;;;;;12.11;100.00;97142.00;5041961;28;20261;-52
2022/05/06 09:37:36;;;;;;;23.20;20.67;;;;;;;12.16;100.00;97142.38;5041307;28;20212;-51
2022/05/06 09:40:05;;;;;;;26.00;23.27;;;;;;;12.11;100.00;97142.81;5041380;28;20206;-51
2022/05/06 09:42:33;;;;;;;26.00;23.40;;;;;;;12.16;100.00;97137.09;5042017;28;20204;-51
2022/05/06 09:45:02;;;;;;;28.80;25.47;;;;;;;12.13;100.00;97135.56;5040600;28;20199;-51
2022/05/06 09:47:29;;;;;;;28.03;24.03;;;;;;;12.17;100.00;97139.59;5040727;28;20198;-50
2022/05/06 09:49:56;;;;;;;28.27;24.03;;;;;;;12.22;100.00;97136.53;5042903;28;20539;-51
2022/05/06 09:52:23;;;;;;;28.07;24.53;;;;;;;12.23;100.00;97140.84;5041610;28;20242;-50
2022/05/06 09:54:50;;;;;;;26.80;23.90;;;;;;;12.25;100.00;97137.09;5041551;28;20207;-51
2022/05/06 09:57:18;;;;;;;28.00;24.97;;;;;;;12.26;100.00;97141.41;5044229;28;20215;-52
2022/05/06 09:59:45;;;;;;;27.90;24.20;;;;;;;12.29;100.00;97140.31;5044195;28;20231;-51
2022/05/06 10:02:14;;;;;;;28.63;24.43;;;;;;;12.31;100.00;97138.34;5045143;28;20217;-51
2022/05/06 10:04:40;;;;;;;29.67;24.07;;;;;;;12.35;100.00;97143.22;5045461;28;20226;-51
2022/05/06 10:07:08;;;;;;;26.33;23.53;;;;;;;12.39;100.00;97141.97;5044492;28;20188;-51
2022/05/06 10:09:38;;;;;;;29.70;25.13;;;;;;;12.36;100.00;97141.41;5045693;28;20199;-51
2022/05/06 10:12:06;;;;;;;27.30;24.47;;;;;;;12.40;100.00;97148.06;5044612;28;20199;-51
2022/05/06 10:14:33;;;;;;;30.33;24.70;;;;;;;12.38;100.00;97139.44;5044538;28;20204;-50
2022/05/06 10:17:00;;;;;;;28.87;25.67;;;;;;;12.44;100.00;97138.88;5044968;28;20250;-51
2022/05/06 10:19:47;;;;;;;27.90;24.90;;;;;;;12.45;100.00;97140.53;5044713;28;20241;-51
2022/05/06 10:22:14;;;;;;;29.77;26.53;;;;;;;12.51;100.00;97137.31;5044560;28;20375;-50
2022/05/06 10:24:49;;;;;;;31.10;25.73;;;;;;;12.57;100.00;97142.06;5045047;28;20218;-51
2022/05/06 10:32:25;;;;;;;30.43;25.77;;;;;;;12.58;100.00;97145.53;5034505;28;21419;-51
2022/05/06 10:33:16;;;;;;;28.60;25.63;;;;;;;12.55;100.00;97140.50;5044333;28;20650;-50
2022/05/06 10:35:45;;;;;;;28.40;25.53;;;;;;;12.56;100.00;97143.03;5044788;28;20230;-52
2022/05/06 10:38:20;;;;;;;28.87;25.47;;;;;;;12.54;100.00;97144.16;5044603;28;21480;-50
2022/05/06 10:40:53;;;;;;;28.23;25.33;;;;;;;12.46;100.00;97136.91;5045283;28;20200;-51
2022/05/06 10:43:51;;;;;;;27.77;24.97;;;;;;;12.54;100.00;97137.03;5035225;28;20623;-52
2022/05/06 10:46:32;;;;;;;28.40;25.50;;;;;;;12.50;100.00;97146.28;5045026;28;20650;-52
2022/05/06 10:49:30;;;;;;;27.97;24.97;;;;;;;12.52;100.00;97139.00;5046106;28;20628;-51
2022/05/06 10:52:47;;;;;;;28.33;25.50;;;;;;;12.54;100.00;97139.69;5043032;28;20195;-50
2022/05/06 10:55:17;;;;;;;28.33;25.33;;;;;;;12.62;100.00;97141.63;5044016;28;20635;-51
2022/05/06 10:57:49;;;;;;;28.83;25.73;;;;;;;12.68;100.00;97139.22;5044425;28;20226;-52
2022/05/06 11:00:16;;;;;;;29.40;26.40;;;;;;;12.71;100.00;97138.97;5044510;28;20241;-52
2022/05/06 11:02:43;;;;;;;31.17;27.87;;;;;;;12.68;100.00;97141.88;5043827;28;20208;-51
2022/05/06 11:05:11;;;;;;;30.83;27.70;;;;;;;12.75;100.00;97142.97;5044110;28;21378;-52
2022/05/06 11:07:42;;;;;;;32.10;28.47;;;;;;;12.74;100.00;97143.97;5045275;28;20195;-51
2022/05/06 11:10:09;;;;;;;31.40;28.00;;;;;;;12.78;100.00;97148.03;5043601;28;20203;-50
2022/05/06 11:12:38;;;;;;;31.67;28.47;;;;;;;12.88;100.00;97145.31;5045105;28;20650;-52
2022/05/06 11:15:07;;;;;;;30.23;27.03;;;;;;;12.83;100.00;97148.41;5045276;28;20235;-50
2022/05/06 11:17:36;;;;;;;27.97;25.07;;;;;;;12.92;100.00;97155.50;5043934;28;20546;-53
2022/05/06 11:20:04;;;;;;;33.27;29.97;;;;;;;12.83;100.00;97147.56;5049042;28;20227;-52
2022/05/06 11:22:33;;;;;;;30.80;27.53;;;;;;;12.92;100.00;97155.50;5046010;28;20218;-52
2022/05/06 11:25:06;;;;;;;33.03;29.53;;;;;;;12.93;100.00;97151.84;5044559;28;20216;-54
2022/05/06 11:27:34;;;;;;;32.30;28.90;;;;;;;12.95;100.00;97151.72;5048319;28;20196;-52
2022/05/06 11:30:01;;;;;;;31.87;28.63;;;;;;;12.98;100.00;97149.63;5056623;28;20183;-53
2022/05/06 11:32:30;;;;;;;38.23;30.97;;;;;;;12.95;100.00;97149.91;5067598;28;20556;-54
2022/05/06 11:35:06;;;;;;;32.43;29.00;;;;;;;13.07;100.00;97149.72;5052148;28;20522;-55
2022/05/06 11:37:35;;;;;;;32.27;28.77;;;;;;;13.09;100.00;97148.63;5048135;28;20195;-54
2022/05/06 11:42:43;;;;;;;34.43;30.93;;;;;;;12.97;100.00;97147.94;5043354;28;20195;-52
2022/05/06 11:48:05;;;;;;;34.03;30.47;;;;;;;13.04;100.00;97142.06;5042484;28;20252;-51
2022/05/06 11:50:36;;;;;;;34.73;31.13;;;;;;;13.10;100.00;97147.66;5043947;28;20211;-50
2022/05/06 11:53:08;;;;;;;35.97;32.13;;;;;;;13.05;100.00;97136.59;5043578;28;20210;-51
2022/05/06 11:55:36;;;;;;;33.13;29.63;;;;;;;13.10;100.00;97141.50;5042781;28;20788;-51
2022/05/06 11:58:03;;;;;;;32.30;29.10;;;;;;;13.22;100.00;97141.16;5039983;28;20238;-52
2022/05/06 12:00:32;;;;;;;35.10;31.57;;;;;;;13.38;100.00;97135.22;5043715;28;20223;-51
2022/05/06 12:03:03;;;;;;;32.13;28.93;;;;;;;13.50;100.00;97144.63;5042614;28;20649;-51
2022/05/06 12:05:29;;;;;;;34.53;30.97;;;;;;;13.55;100.00;97138.88;5043407;28;20223;-52